createdAt,value
2022-09-27T00:01:05.953Z,43.30
2022-09-27T00:03:32.890Z,43.30
2022-09-27T00:06:20.704Z,43.30
2022-09-27T00:08:47.342Z,43.30
2022-09-27T00:11:29.101Z,43.30
2022-09-27T00:13:56.636Z,43.30
2022-09-27T00:16:24.891Z,43.30
2022-09-27T00:18:51.615Z,43.30
2022-09-27T00:21:18.262Z,43.40
2022-09-27T00:23:44.933Z,43.30
2022-09-27T00:26:12.901Z,43.30
2022-09-27T00:28:39.526Z,43.40
2022-09-27T00:31:12.189Z,43.30
2022-09-27T00:33:39.854Z,43.30
2022-09-27T00:36:07.003Z,43.40
2022-09-27T00:38:33.579Z,43.40
2022-09-27T00:41:00.272Z,43.40
2022-09-27T00:43:27.012Z,43.40
2022-09-27T00:45:58.416Z,43.40
2022-09-27T00:48:27.776Z,43.40
2022-09-27T00:50:56.019Z,43.40
2022-09-27T00:53:26.420Z,43.50
2022-09-27T00:55:57.440Z,43.50
2022-09-27T00:58:27.377Z,43.50
2022-09-27T01:00:55.895Z,43.50
2022-09-27T01:03:34.671Z,43.50
2022-09-27T01:06:01.355Z,43.50
2022-09-27T01:08:28.122Z,43.50
2022-09-27T01:11:18.055Z,43.50
2022-09-27T01:14:04.944Z,43.60
2022-09-27T01:17:00.409Z,43.50
2022-09-27T01:19:52.038Z,43.50
2022-09-27T01:22:25.992Z,43.50
2022-09-27T01:24:54.345Z,43.40
2022-09-27T01:27:45.176Z,43.50
2022-09-27T01:30:16.828Z,43.50
2022-09-27T01:32:49.369Z,43.50
2022-09-27T01:35:32.532Z,43.60
2022-09-27T01:38:22.326Z,43.60
2022-09-27T01:40:59.786Z,43.40
2022-09-27T01:43:33.003Z,43.60
2022-09-27T01:46:07.925Z,43.60
2022-09-27T01:48:37.976Z,43.60
2022-09-27T01:51:08.208Z,43.60
2022-09-27T01:53:41.474Z,43.70
2022-09-27T01:56:14.058Z,43.70
2022-09-27T01:58:51.445Z,43.70
2022-09-27T02:01:18.802Z,43.70
2022-09-27T02:03:48.718Z,43.70
2022-09-27T02:06:20.114Z,43.70
2022-09-27T02:08:53.667Z,43.70
2022-09-27T02:11:20.267Z,43.70
2022-09-27T02:13:54.350Z,43.70
2022-09-27T02:16:33.719Z,43.70
2022-09-27T02:19:11.172Z,43.70
2022-09-27T02:22:06.979Z,43.70
2022-09-27T02:24:40.382Z,43.60
2022-09-27T02:27:22.582Z,43.60
2022-09-27T02:30:08.899Z,43.70
2022-09-27T02:32:35.564Z,43.70
2022-09-27T02:35:05.978Z,43.70
2022-09-27T02:37:33.169Z,43.70
2022-09-27T02:39:59.859Z,43.80
2022-09-27T02:42:26.476Z,43.80
2022-09-27T02:44:53.040Z,43.80
2022-09-27T02:47:29.103Z,43.80
2022-09-27T02:50:07.983Z,43.80
2022-09-27T02:52:38.985Z,43.70
2022-09-27T02:55:50.557Z,43.70
2022-09-27T02:58:39.094Z,43.80
2022-09-27T03:01:31.292Z,43.80
2022-09-27T03:04:37.309Z,43.70
2022-09-27T03:07:03.969Z,43.70
2022-09-27T03:09:40.657Z,43.80
2022-09-27T03:12:07.274Z,43.80
2022-09-27T03:14:33.900Z,43.80
2022-09-27T03:17:00.576Z,43.80
2022-09-27T03:19:27.191Z,43.90
2022-09-27T03:21:54.120Z,43.90
2022-09-27T03:24:20.669Z,43.90
2022-09-27T03:26:47.250Z,44.00
2022-09-27T03:29:14.013Z,43.90
2022-09-27T03:31:41.820Z,43.90
2022-09-27T03:34:08.552Z,44.00
2022-09-27T03:36:35.188Z,44.00
2022-09-27T03:39:01.813Z,44.00
2022-09-27T03:41:28.484Z,44.00
2022-09-27T03:43:57.768Z,44.00
2022-09-27T03:46:24.418Z,44.00
2022-09-27T03:48:51.076Z,44.00
2022-09-27T03:51:17.844Z,44.00
2022-09-27T03:53:44.408Z,44.00
2022-09-27T03:56:11.049Z,44.00
2022-09-27T03:58:37.605Z,44.00
2022-09-27T04:01:04.278Z,44.00
2022-09-27T04:03:30.870Z,44.00
2022-09-27T04:05:57.630Z,44.10
2022-09-27T04:08:24.184Z,44.00
2022-09-27T04:10:50.851Z,44.00
2022-09-27T04:13:17.504Z,44.00
2022-09-27T04:15:47.380Z,44.00
2022-09-27T04:18:16.484Z,44.10
2022-09-27T04:20:43.037Z,44.00
2022-09-27T04:23:09.689Z,44.00
2022-09-27T04:25:36.367Z,44.00
2022-09-27T04:28:02.951Z,44.10
2022-09-27T04:30:29.890Z,44.00
2022-09-27T04:32:56.757Z,44.00
2022-09-27T04:35:41.889Z,44.00
2022-09-27T04:38:08.513Z,44.10
2022-09-27T04:40:38.400Z,44.00
2022-09-27T04:43:05.183Z,44.10
2022-09-27T04:45:31.823Z,44.10
2022-09-27T04:47:58.404Z,44.10
2022-09-27T04:50:25.141Z,44.10
2022-09-27T04:52:52.591Z,44.10
2022-09-27T04:55:20.533Z,44.10
2022-09-27T04:57:48.013Z,44.30
2022-09-27T05:00:15.333Z,44.60
2022-09-27T05:02:45.561Z,44.40
2022-09-27T05:05:12.220Z,43.90
2022-09-27T05:07:39.599Z,43.00
2022-09-27T05:10:07.123Z,41.80
2022-09-27T05:12:33.725Z,40.50
2022-09-27T05:15:00.285Z,39.30
2022-09-27T05:17:26.957Z,38.30
2022-09-27T05:19:53.889Z,37.50
2022-09-27T05:22:20.512Z,37.00
2022-09-27T05:24:47.241Z,36.00
2022-09-27T05:27:20.255Z,34.70
2022-09-27T05:29:47.470Z,33.60
2022-09-27T05:32:15.183Z,32.50
2022-09-27T05:34:41.792Z,31.60
2022-09-27T05:37:08.441Z,30.70
2022-09-27T05:39:35.129Z,30.00
2022-09-27T05:42:02.724Z,29.50
2022-09-27T05:44:29.393Z,29.10
2022-09-27T05:46:56.077Z,28.60
2022-09-27T05:49:22.705Z,28.50
2022-09-27T05:51:49.411Z,28.40
2022-09-27T05:54:16.180Z,28.20
2022-09-27T05:56:42.873Z,28.30
2022-09-27T05:59:09.433Z,28.30
2022-09-27T06:01:36.049Z,28.50
2022-09-27T06:04:05.737Z,28.60
2022-09-27T06:06:34.137Z,28.90
2022-09-27T06:09:01.383Z,29.10
2022-09-27T06:11:29.387Z,29.30
2022-09-27T06:13:55.941Z,29.50
2022-09-27T06:16:22.958Z,29.80
2022-09-27T06:18:49.689Z,30.10
2022-09-27T06:21:16.329Z,30.50
2022-09-27T06:23:42.879Z,30.80
2022-09-27T06:26:10.844Z,31.20
2022-09-27T06:28:37.413Z,31.20
2022-09-27T06:31:05.920Z,31.70
2022-09-27T06:33:32.668Z,31.70
2022-09-27T06:36:05.952Z,32.30
2022-09-27T06:38:32.886Z,32.70
2022-09-27T06:41:03.414Z,33.20
2022-09-27T06:43:31.212Z,33.50
2022-09-27T06:46:04.590Z,33.90
2022-09-27T06:48:37.452Z,33.90
2022-09-27T06:51:04.120Z,33.90
2022-09-27T06:53:30.945Z,34.00
2022-09-27T06:56:00.049Z,34.00
2022-09-27T06:58:46.238Z,33.80
2022-09-27T07:01:13.213Z,33.50
2022-09-27T07:03:41.690Z,33.00
2022-09-27T07:06:18.656Z,32.70
2022-09-27T07:08:45.241Z,32.50
2022-09-27T07:11:11.811Z,32.30
2022-09-27T07:13:42.747Z,32.30
2022-09-27T07:16:13.103Z,32.20
2022-09-27T07:18:40.668Z,31.80
2022-09-27T07:21:08.669Z,31.30
2022-09-27T07:23:36.499Z,30.80
2022-09-27T07:26:07.343Z,30.30
2022-09-27T07:28:34.299Z,29.90
2022-09-27T07:31:02.794Z,29.60
2022-09-27T07:33:30.521Z,29.20
2022-09-27T07:35:57.399Z,28.70
2022-09-27T07:38:24.321Z,28.50
2022-09-27T07:40:51.086Z,28.20
2022-09-27T07:43:17.751Z,28.00
2022-09-27T07:45:44.382Z,28.00
2022-09-27T07:48:13.518Z,27.90
2022-09-27T07:50:40.241Z,27.90
2022-09-27T07:53:06.864Z,28.00
2022-09-27T07:55:33.614Z,28.00
2022-09-27T07:58:04.257Z,28.20
2022-09-27T08:00:31.000Z,28.50
2022-09-27T08:02:57.605Z,28.70
2022-09-27T08:05:24.197Z,28.80
2022-09-27T08:07:56.738Z,29.10
2022-09-27T08:10:30.568Z,29.10
2022-09-27T08:12:58.681Z,29.60
2022-09-27T08:15:25.727Z,29.90
2022-09-27T08:17:53.588Z,30.20
2022-09-27T08:20:20.537Z,30.70
2022-09-27T08:22:47.159Z,31.10
2022-09-27T08:25:14.252Z,31.50
2022-09-27T08:27:41.826Z,31.80
2022-09-27T08:30:08.886Z,32.20
2022-09-27T08:32:36.104Z,32.50
2022-09-27T08:35:02.719Z,32.80
2022-09-27T08:37:29.826Z,33.20
2022-09-27T08:39:56.500Z,33.50
2022-09-27T08:42:36.679Z,33.70
2022-09-27T08:45:28.461Z,33.80
2022-09-27T08:47:57.005Z,33.80
2022-09-27T08:50:38.948Z,33.80
2022-09-27T08:53:38.760Z,33.60
2022-09-27T08:56:07.747Z,33.60
2022-09-27T08:58:43.779Z,33.80
2022-09-27T09:01:13.575Z,34.00
2022-09-27T09:03:49.918Z,34.20
2022-09-27T09:06:24.798Z,34.30
2022-09-27T09:09:11.136Z,34.50
2022-09-27T09:12:13.016Z,34.70
2022-09-27T09:15:07.298Z,34.60
2022-09-27T09:17:45.949Z,33.90
2022-09-27T09:20:27.536Z,33.10
2022-09-27T09:23:19.044Z,32.20
2022-09-27T09:26:19.823Z,31.40
2022-09-27T09:29:16.959Z,31.10
2022-09-27T09:32:06.956Z,30.00
2022-09-27T09:34:43.314Z,30.00
2022-09-27T09:37:28.182Z,29.40
2022-09-27T09:40:08.727Z,29.20
2022-09-27T09:42:39.117Z,29.00
2022-09-27T09:45:16.579Z,28.90
2022-09-27T09:48:29.171Z,29.00
2022-09-27T09:50:57.737Z,29.30
2022-09-27T09:53:42.824Z,29.20
2022-09-27T09:56:32.971Z,29.30
2022-09-27T09:59:02.215Z,29.70
2022-09-27T10:01:35.132Z,29.70
2022-09-27T10:04:02.089Z,30.00
2022-09-27T10:06:28.905Z,30.10
2022-09-27T10:08:55.754Z,30.50
2022-09-27T10:11:27.474Z,30.80
2022-09-27T10:13:55.339Z,31.20
2022-09-27T10:16:22.128Z,31.40
2022-09-27T10:18:50.179Z,31.70
2022-09-27T10:21:25.603Z,32.10
2022-09-27T10:24:12.404Z,32.40
2022-09-27T10:26:44.741Z,32.70
2022-09-27T10:29:21.699Z,33.00
2022-09-27T10:31:49.180Z,32.90
2022-09-27T10:34:26.477Z,33.40
2022-09-27T10:37:17.451Z,33.80
2022-09-27T10:39:45.726Z,33.80
2022-09-27T10:42:20.175Z,34.40
2022-09-27T10:44:46.803Z,34.50
2022-09-27T10:47:16.432Z,34.80
2022-09-27T10:49:43.100Z,34.90
2022-09-27T10:52:20.472Z,35.30
2022-09-27T10:55:01.972Z,35.60
2022-09-27T10:57:29.892Z,35.70
2022-09-27T11:00:02.270Z,36.00
2022-09-27T11:02:33.891Z,36.10
2022-09-27T11:05:31.447Z,36.20
2022-09-27T11:08:07.572Z,36.00
2022-09-27T11:10:37.660Z,36.60
2022-09-27T11:13:17.945Z,36.70
2022-09-27T11:16:16.394Z,36.20
2022-09-27T11:19:06.327Z,35.40
2022-09-27T11:22:04.265Z,34.60
2022-09-27T11:25:32.119Z,33.70
2022-09-27T11:28:04.269Z,32.90
2022-09-27T11:30:42.598Z,32.00
2022-09-27T11:33:35.812Z,31.60
2022-09-27T11:36:13.693Z,31.50
2022-09-27T11:38:54.159Z,30.70
2022-09-27T11:41:41.230Z,30.30
2022-09-27T11:44:33.352Z,30.00
2022-09-27T11:47:27.632Z,30.00
2022-09-27T11:50:41.165Z,29.40
2022-09-27T11:53:29.661Z,29.60
2022-09-27T11:56:02.541Z,28.90
2022-09-27T11:58:50.628Z,28.70
2022-09-27T12:01:34.280Z,28.60
2022-09-27T12:04:31.796Z,28.90
2022-09-27T12:07:20.285Z,29.20
2022-09-27T12:09:50.222Z,29.40
2022-09-27T12:12:22.248Z,29.50
2022-09-27T12:14:50.782Z,29.70
2022-09-27T12:17:27.459Z,30.00
2022-09-27T12:19:55.945Z,30.20
2022-09-27T12:22:53.906Z,30.60
2022-09-27T12:25:20.304Z,30.90
2022-09-27T12:27:49.999Z,31.20
2022-09-27T12:30:16.723Z,31.60
2022-09-27T12:33:21.511Z,31.90
2022-09-27T12:35:53.310Z,32.10
2022-09-27T12:38:37.659Z,32.70
2022-09-27T12:41:05.935Z,33.00
2022-09-27T12:43:32.590Z,33.90
2022-09-27T12:46:44.252Z,33.70
2022-09-27T12:49:33.537Z,34.00
2022-09-27T12:52:11.837Z,34.30
2022-09-27T12:54:49.491Z,34.60
2022-09-27T12:57:44.432Z,34.90
2022-09-27T13:00:22.578Z,34.90
2022-09-27T13:03:14.546Z,35.30
2022-09-27T13:06:16.165Z,35.70
2022-09-27T13:09:05.848Z,35.70
2022-09-27T13:12:01.497Z,36.10
2022-09-27T13:14:30.151Z,36.20
2022-09-27T13:16:56.718Z,36.50
2022-09-27T13:19:43.157Z,36.80
2022-09-27T13:22:28.410Z,36.60
2022-09-27T13:24:55.336Z,35.90
2022-09-27T13:27:27.890Z,34.80
2022-09-27T13:30:09.709Z,33.90
2022-09-27T13:32:37.019Z,33.10
2022-09-27T13:35:26.659Z,32.00
2022-09-27T13:37:59.175Z,31.60
2022-09-27T13:40:27.656Z,30.80
2022-09-27T13:43:10.375Z,30.10
2022-09-27T13:45:50.616Z,29.70
2022-09-27T13:48:22.997Z,29.50
2022-09-27T13:51:00.120Z,29.00
2022-09-27T13:53:34.786Z,28.80
2022-09-27T13:56:01.584Z,28.70
2022-09-27T13:58:45.752Z,28.70
2022-09-27T14:01:20.958Z,28.90
2022-09-27T14:03:47.830Z,28.80
2022-09-27T14:06:17.106Z,28.90
2022-09-27T14:08:46.138Z,29.00
2022-09-27T14:11:21.449Z,29.20
2022-09-27T14:13:48.720Z,29.40
2022-09-27T14:16:16.690Z,29.60
2022-09-27T14:18:45.855Z,29.90
2022-09-27T14:21:27.352Z,30.00
2022-09-27T14:23:53.972Z,30.40
2022-09-27T14:26:23.719Z,29.70
2022-09-27T14:28:50.389Z,30.00
2022-09-27T14:31:19.311Z,30.70
2022-09-27T14:33:46.088Z,31.20
2022-09-27T14:36:44.749Z,31.60
2022-09-27T14:39:36.283Z,31.90
2022-09-27T14:42:06.470Z,32.30
2022-09-27T14:44:33.354Z,32.70
2022-09-27T14:47:18.184Z,33.10
2022-09-27T14:49:52.892Z,33.40
2022-09-27T14:52:22.213Z,33.70
2022-09-27T14:54:59.923Z,34.20
2022-09-27T14:57:28.177Z,34.10
2022-09-27T14:59:55.125Z,34.30
2022-09-27T15:02:23.556Z,34.50
2022-09-27T15:04:50.888Z,34.90
2022-09-27T15:07:19.069Z,35.20
2022-09-27T15:09:45.958Z,35.60
2022-09-27T15:12:23.249Z,35.80
2022-09-27T15:14:54.012Z,35.90
2022-09-27T15:17:23.006Z,36.20
2022-09-27T15:20:02.255Z,36.30
2022-09-27T15:22:43.840Z,36.40
2022-09-27T15:25:22.504Z,36.50
2022-09-27T15:27:51.027Z,36.90
2022-09-27T15:30:30.074Z,37.10
2022-09-27T15:32:57.022Z,37.20
2022-09-27T15:35:30.036Z,37.40
2022-09-27T15:38:14.628Z,37.60
2022-09-27T15:40:50.760Z,37.40
2022-09-27T15:43:21.194Z,37.50
2022-09-27T15:45:51.875Z,37.70
2022-09-27T15:48:20.097Z,37.90
2022-09-27T15:50:48.156Z,38.10
2022-09-27T15:53:33.344Z,38.30
2022-09-27T15:56:08.402Z,38.20
2022-09-27T15:58:34.951Z,38.60
2022-09-27T16:01:03.355Z,38.60
2022-09-27T16:03:30.154Z,38.70
2022-09-27T16:06:03.270Z,38.80
2022-09-27T16:08:30.009Z,38.90
2022-09-27T16:10:57.883Z,38.90
2022-09-27T16:13:28.873Z,39.00
2022-09-27T16:15:58.846Z,39.10
2022-09-27T16:18:30.164Z,39.20
2022-09-27T16:20:58.241Z,39.20
2022-09-27T16:23:24.817Z,39.30
2022-09-27T16:25:53.032Z,39.30
2022-09-27T16:28:19.597Z,39.50
2022-09-27T16:30:47.870Z,39.50
2022-09-27T16:33:14.523Z,39.60
2022-09-27T16:35:41.311Z,39.70
2022-09-27T16:38:08.064Z,39.70
2022-09-27T16:40:34.757Z,39.80
2022-09-27T16:43:04.842Z,39.90
2022-09-27T16:45:33.303Z,39.90
2022-09-27T16:48:00.873Z,39.90
2022-09-27T16:50:46.232Z,40.00
2022-09-27T16:53:13.581Z,40.10
2022-09-27T16:55:40.357Z,40.10
2022-09-27T16:58:08.556Z,40.20
2022-09-27T17:00:35.213Z,40.30
2022-09-27T17:03:01.973Z,40.30
2022-09-27T17:05:28.743Z,40.20
2022-09-27T17:07:55.665Z,40.30
2022-09-27T17:10:22.597Z,40.30
2022-09-27T17:12:49.269Z,40.40
2022-09-27T17:15:16.087Z,40.40
2022-09-27T17:17:45.017Z,40.50
2022-09-27T17:20:17.644Z,40.60
2022-09-27T17:22:44.229Z,40.50
2022-09-27T17:25:10.819Z,40.50
2022-09-27T17:27:37.556Z,41.30
2022-09-27T17:30:05.161Z,40.70
2022-09-27T17:32:32.006Z,40.70
2022-09-27T17:34:58.810Z,40.80
2022-09-27T17:37:25.543Z,40.90
2022-09-27T17:39:52.521Z,40.90
2022-09-27T17:42:19.106Z,41.00
2022-09-27T17:44:46.527Z,41.00
2022-09-27T17:47:32.017Z,41.20
2022-09-27T17:50:17.658Z,41.30
2022-09-27T17:52:46.520Z,41.30
2022-09-27T17:55:14.771Z,41.40
2022-09-27T17:57:41.389Z,41.40
2022-09-27T18:00:08.798Z,41.50
2022-09-27T18:02:35.546Z,41.60
2022-09-27T18:05:02.523Z,41.70
2022-09-27T18:07:29.124Z,42.40
2022-09-27T18:09:55.772Z,41.80
2022-09-27T18:12:22.582Z,41.80
2022-09-27T18:14:49.336Z,42.00
2022-09-27T18:17:18.118Z,42.00
2022-09-27T18:19:44.913Z,42.10
2022-09-27T18:22:11.552Z,42.10
2022-09-27T18:24:38.113Z,42.20
2022-09-27T18:27:04.825Z,42.20
2022-09-27T18:29:32.466Z,42.30
2022-09-27T18:31:59.121Z,42.30
2022-09-27T18:34:25.832Z,42.40
2022-09-27T18:36:52.501Z,42.40
2022-09-27T18:39:19.521Z,42.40
2022-09-27T18:41:48.484Z,42.50
2022-09-27T18:44:15.505Z,42.60
2022-09-27T18:46:42.324Z,42.60
2022-09-27T18:49:10.959Z,42.50
2022-09-27T18:51:39.847Z,42.70
2022-09-27T18:54:09.279Z,42.70
2022-09-27T18:56:39.543Z,42.80
2022-09-27T18:59:08.696Z,42.80
2022-09-27T19:01:39.415Z,42.90
2022-09-27T19:04:07.342Z,42.90
2022-09-27T19:06:33.924Z,42.90
2022-09-27T19:09:00.649Z,42.90
2022-09-27T19:11:37.426Z,42.90
2022-09-27T19:14:04.207Z,42.90
2022-09-27T19:16:30.994Z,42.90
2022-09-27T19:18:57.727Z,43.00
2022-09-27T19:21:26.336Z,43.00
2022-09-27T19:23:53.100Z,43.00
2022-09-27T19:26:21.170Z,42.90
2022-09-27T19:28:47.838Z,42.90
2022-09-27T19:31:16.021Z,42.90
2022-09-27T19:33:42.979Z,42.90
2022-09-27T19:36:12.043Z,42.90
2022-09-27T19:38:38.656Z,43.00
2022-09-27T19:41:08.802Z,43.00
2022-09-27T19:43:35.584Z,43.00
2022-09-27T19:46:07.912Z,43.00
2022-09-27T19:48:38.254Z,43.00
2022-09-27T19:51:05.252Z,42.90
2022-09-27T19:53:32.414Z,43.00
2022-09-27T19:56:02.724Z,42.90
2022-09-27T19:58:29.981Z,42.90
2022-09-27T20:01:07.383Z,43.00
2022-09-27T20:03:34.834Z,43.60
2022-09-27T20:06:01.869Z,43.00
2022-09-27T20:08:28.852Z,43.00
2022-09-27T20:11:09.167Z,43.00
2022-09-27T20:13:36.509Z,43.00
2022-09-27T20:16:19.488Z,43.00
2022-09-27T20:18:48.108Z,43.00
2022-09-27T20:21:14.911Z,43.00
2022-09-27T20:23:41.692Z,43.10
2022-09-27T20:26:13.633Z,43.10
2022-09-27T20:28:41.452Z,43.00
2022-09-27T20:31:08.172Z,43.00
2022-09-27T20:33:40.926Z,43.00
2022-09-27T20:36:12.450Z,43.10
2022-09-27T20:38:43.474Z,43.10
2022-09-27T20:41:10.820Z,43.20
2022-09-27T20:43:37.993Z,43.10
2022-09-27T20:46:06.209Z,43.10
2022-09-27T20:48:33.105Z,43.20
2022-09-27T20:51:04.230Z,43.20
2022-09-27T20:53:31.516Z,43.20
2022-09-27T20:56:04.870Z,43.10
2022-09-27T20:58:31.872Z,43.70
2022-09-27T21:01:04.887Z,43.10
2022-09-27T21:03:31.640Z,43.10
2022-09-27T21:05:58.373Z,43.20
2022-09-27T21:08:25.116Z,43.20
2022-09-27T21:10:53.738Z,43.30
2022-09-27T21:13:20.720Z,43.20
2022-09-27T21:15:47.525Z,43.20
2022-09-27T21:18:14.199Z,43.20
2022-09-27T21:20:40.808Z,43.30
2022-09-27T21:23:07.355Z,43.30
2022-09-27T21:25:33.972Z,43.30
2022-09-27T21:28:04.059Z,43.30
2022-09-27T21:30:30.984Z,43.30
2022-09-27T21:32:57.743Z,43.30
2022-09-27T21:35:24.394Z,43.30
2022-09-27T21:37:51.010Z,43.40
2022-09-27T21:40:17.713Z,43.40
2022-09-27T21:42:44.359Z,43.30
2022-09-27T21:45:11.154Z,43.40
2022-09-27T21:47:37.755Z,43.40
2022-09-27T21:50:04.564Z,43.30
2022-09-27T21:52:31.127Z,43.40
2022-09-27T21:54:57.723Z,43.50
2022-09-27T21:57:24.276Z,43.40
2022-09-27T21:59:50.823Z,43.40
2022-09-27T22:02:20.228Z,43.50
2022-09-27T22:04:49.217Z,43.50
2022-09-27T22:07:16.067Z,43.50
2022-09-27T22:09:42.707Z,43.50
2022-09-27T22:12:09.574Z,43.50
2022-09-27T22:14:36.341Z,43.50
2022-09-27T22:17:02.920Z,43.50
2022-09-27T22:19:29.739Z,43.50
2022-09-27T22:21:56.306Z,43.50
2022-09-27T22:24:23.645Z,43.60
2022-09-27T22:26:53.799Z,43.50
2022-09-27T22:29:20.650Z,43.50
2022-09-27T22:31:47.663Z,43.50
2022-09-27T22:34:20.552Z,43.50
2022-09-27T22:36:47.226Z,43.60
2022-09-27T22:39:13.955Z,43.60
2022-09-27T22:41:40.627Z,43.60
2022-09-27T22:44:08.557Z,43.60
2022-09-27T22:46:35.578Z,43.60
2022-09-27T22:49:02.196Z,43.60
2022-09-27T22:51:29.908Z,43.70
2022-09-27T22:53:56.525Z,43.70
2022-09-27T22:56:23.156Z,43.70
2022-09-27T22:58:49.778Z,43.70
2022-09-27T23:01:22.845Z,43.70
2022-09-27T23:03:51.233Z,43.60
2022-09-27T23:06:18.638Z,43.60
2022-09-27T23:08:45.432Z,43.60
2022-09-27T23:11:13.912Z,43.60
2022-09-27T23:13:41.819Z,43.70
2022-09-27T23:16:10.145Z,43.70
2022-09-27T23:18:37.215Z,43.80
2022-09-27T23:21:06.955Z,43.80
2022-09-27T23:23:35.007Z,43.80
2022-09-27T23:26:02.720Z,43.80
2022-09-27T23:28:29.740Z,43.80
2022-09-27T23:30:56.457Z,43.70
2022-09-27T23:33:23.134Z,43.70
2022-09-27T23:35:50.207Z,43.70
2022-09-27T23:38:16.877Z,43.70
2022-09-27T23:40:44.334Z,43.80
2022-09-27T23:43:11.133Z,43.70
2022-09-27T23:45:38.143Z,43.70
2022-09-27T23:48:05.151Z,43.80
2022-09-27T23:50:32.455Z,43.80
2022-09-27T23:52:59.540Z,43.80
2022-09-27T23:55:26.180Z,43.80
2022-09-27T23:57:52.925Z,43.80
